Terminal Aerodrome Forecast
Issued by NWS

Home | Current Version | Previous Version | Text Only | Print | Product List | Glossary On
Versions: 1 2 3 4 5 6 7 8 9 10 11 12 13 14 15 16 17 18 19 20 21 22 23 24 25 26 27 28 29 30 31 32
000
FTUS45 KBOI 280250 AAA
TAFJER
TAF AMD
KJER 280250Z 2803/2824 VRB05KT 6SM -RA BR OVC035
      TEMPO 2803/2807 1/2SM -RA FG OVC020
     FM280700 21005KT 5SM BR OVC005
     FM281900 23007KT P6SM BKN050=

USA.gov is the U.S. government's official web portal to all federal, state and local government web resources and services.